UKV4134 EGPF-EGEC
Flight info
| Callsign | UKV4134 |
|---|---|
| Flight time | 0h 48m |
| Altitude | 10000 |
| Route | XEBAB |
| Aircraft | DHC6/L-SDGRY/S |
Departure
| Time | 2026-04-25 08:56 |
|---|---|
| Airport | Glasgow Airport (EGPF) |
Arrival
| Time | 2026-04-25 09:44 |
|---|---|
| Airport | Campbeltown Airport (EGEC) |
| Time | Latitude | Longitude | Altitude | Speed | Heading |
|---|---|---|---|---|---|
| 2026-04-25 08:35 | 55.86602 | -4.42990 | 28 ft | 0 kts | 254° |
| 2026-04-25 08:46 | 55.86608 | -4.42951 | 28 ft | 4 kts | 254° |
| 2026-04-25 08:46 | 55.86610 | -4.42905 | 26 ft | 4 kts | 306° |
| 2026-04-25 08:46 | 55.86601 | -4.42896 | 26 ft | 1 kts | 344° |
| 2026-04-25 08:46 | 55.86600 | -4.42896 | 26 ft | 0 kts | 344° |
| 2026-04-25 08:49 | 55.86603 | -4.42897 | 26 ft | 2 kts | 344° |
| 2026-04-25 08:50 | 55.86634 | -4.42912 | 26 ft | 7 kts | 347° |
| 2026-04-25 08:50 | 55.86694 | -4.42938 | 26 ft | 11 kts | 346° |
| 2026-04-25 08:50 | 55.86766 | -4.42975 | 26 ft | 5 kts | 330° |
| 2026-04-25 08:50 | 55.86812 | -4.43021 | 26 ft | 10 kts | 322° |
| 2026-04-25 08:51 | 55.86822 | -4.43151 | 26 ft | 13 kts | 258° |
| 2026-04-25 08:51 | 55.86796 | -4.43325 | 26 ft | 16 kts | 254° |
| 2026-04-25 08:51 | 55.86762 | -4.43526 | 26 ft | 18 kts | 255° |
| 2026-04-25 08:51 | 55.86732 | -4.43724 | 29 ft | 17 kts | 252° |
| 2026-04-25 08:52 | 55.86659 | -4.43891 | 26 ft | 18 kts | 214° |
| 2026-04-25 08:52 | 55.86581 | -4.44014 | 26 ft | 15 kts | 227° |
| 2026-04-25 08:52 | 55.86513 | -4.44144 | 26 ft | 12 kts | 232° |
| 2026-04-25 08:52 | 55.86453 | -4.44272 | 27 ft | 15 kts | 228° |
| 2026-04-25 08:53 | 55.86387 | -4.44395 | 29 ft | 13 kts | 225° |
| 2026-04-25 08:53 | 55.86316 | -4.44530 | 27 ft | 16 kts | 226° |
| 2026-04-25 08:53 | 55.86264 | -4.44638 | 23 ft | 10 kts | 234° |
| 2026-04-25 08:53 | 55.86270 | -4.44743 | 23 ft | 9 kts | 310° |
| 2026-04-25 08:54 | 55.86304 | -4.44799 | 24 ft | 7 kts | 320° |
| 2026-04-25 08:54 | 55.86349 | -4.44868 | 26 ft | 10 kts | 328° |
| 2026-04-25 08:54 | 55.86382 | -4.44847 | 25 ft | 0 kts | 47° |
| 2026-04-25 08:55 | 55.86434 | -4.44747 | 26 ft | 41 kts | 46° |
| 2026-04-25 08:55 | 55.86778 | -4.44098 | 44 ft | 98 kts | 48° |
| 2026-04-25 08:55 | 55.87293 | -4.43130 | 269 ft | 115 kts | 46° |
| 2026-04-25 08:55 | 55.87871 | -4.42133 | 614 ft | 114 kts | 49° |
| 2026-04-25 08:56 | 55.88380 | -4.41080 | 899 ft | 115 kts | 43° |
| 2026-04-25 08:56 | 55.89174 | -4.40612 | 1038 ft | 129 kts | 1° |
| 2026-04-25 08:56 | 55.90029 | -4.41151 | 1196 ft | 137 kts | 329° |
| 2026-04-25 08:56 | 55.90543 | -4.41995 | 1320 ft | 141 kts | 310° |
| 2026-04-25 08:57 | 55.90889 | -4.43363 | 1438 ft | 146 kts | 283° |
| 2026-04-25 08:57 | 55.90799 | -4.44980 | 1508 ft | 152 kts | 247° |
| 2026-04-25 08:57 | 55.90470 | -4.45859 | 1492 ft | 157 kts | 225° |
| 2026-04-25 08:57 | 55.89434 | -4.46737 | 1566 ft | 153 kts | 182° |
| 2026-04-25 08:58 | 55.88454 | -4.46197 | 1731 ft | 144 kts | 139° |
| 2026-04-25 08:58 | 55.87994 | -4.44698 | 1899 ft | 139 kts | 96° |
| 2026-04-25 08:58 | 55.88098 | -4.43019 | 2080 ft | 136 kts | 77° |
| 2026-04-25 08:58 | 55.88375 | -4.41423 | 2260 ft | 135 kts | 63° |
| 2026-04-25 08:59 | 55.88956 | -4.40120 | 2437 ft | 135 kts | 49° |
| 2026-04-25 08:59 | 55.89582 | -4.38882 | 2616 ft | 135 kts | 47° |
| 2026-04-25 08:59 | 55.90224 | -4.37661 | 2784 ft | 135 kts | 47° |
| 2026-04-25 08:59 | 55.90877 | -4.36442 | 2951 ft | 137 kts | 46° |
| 2026-04-25 09:00 | 55.91540 | -4.35200 | 3120 ft | 138 kts | 46° |
| 2026-04-25 09:00 | 55.92205 | -4.33961 | 3289 ft | 138 kts | 46° |
| 2026-04-25 09:00 | 55.92960 | -4.32921 | 3454 ft | 139 kts | 19° |
| 2026-04-25 09:00 | 55.93905 | -4.33005 | 3616 ft | 140 kts | 335° |
| 2026-04-25 09:01 | 55.94558 | -4.34225 | 3785 ft | 139 kts | 292° |
| 2026-04-25 09:01 | 55.94602 | -4.35925 | 3954 ft | 139 kts | 256° |
| 2026-04-25 09:01 | 55.94356 | -4.37576 | 4127 ft | 138 kts | 257° |
| 2026-04-25 09:01 | 55.94137 | -4.39234 | 4300 ft | 137 kts | 257° |
| 2026-04-25 09:02 | 55.93918 | -4.40885 | 4474 ft | 137 kts | 258° |
| 2026-04-25 09:02 | 55.93701 | -4.42540 | 4647 ft | 137 kts | 257° |
| 2026-04-25 09:02 | 55.93545 | -4.43730 | 4772 ft | 137 kts | 257° |
| 2026-04-25 09:03 | 55.93276 | -4.45800 | 4988 ft | 137 kts | 258° |
| 2026-04-25 09:04 | 55.93061 | -4.47456 | 5163 ft | 137 kts | 258° |
| 2026-04-25 09:04 | 55.92845 | -4.49115 | 5337 ft | 137 kts | 258° |
| 2026-04-25 09:04 | 55.92702 | -4.50233 | 5455 ft | 137 kts | 258° |
| 2026-04-25 09:04 | 55.92486 | -4.51884 | 5629 ft | 136 kts | 258° |
| 2026-04-25 09:05 | 55.92273 | -4.53526 | 5807 ft | 135 kts | 258° |
| 2026-04-25 09:05 | 55.92062 | -4.55161 | 5975 ft | 136 kts | 258° |
| 2026-04-25 09:05 | 55.91841 | -4.56853 | 5992 ft | 144 kts | 258° |
| 2026-04-25 09:05 | 55.91609 | -4.58635 | 6000 ft | 150 kts | 258° |
| 2026-04-25 09:06 | 55.91521 | -4.60477 | 6005 ft | 151 kts | 276° |
| 2026-04-25 09:06 | 55.91777 | -4.62317 | 6004 ft | 154 kts | 293° |
| 2026-04-25 09:06 | 55.92258 | -4.64028 | 6005 ft | 155 kts | 295° |
| 2026-04-25 09:06 | 55.92726 | -4.65764 | 6005 ft | 156 kts | 295° |
| 2026-04-25 09:07 | 55.93194 | -4.67482 | 6003 ft | 157 kts | 295° |
| 2026-04-25 09:07 | 55.93679 | -4.69251 | 6005 ft | 157 kts | 295° |
| 2026-04-25 09:07 | 55.94159 | -4.71006 | 6001 ft | 157 kts | 296° |
| 2026-04-25 09:07 | 55.94633 | -4.72761 | 6004 ft | 157 kts | 295° |
| 2026-04-25 09:08 | 55.95094 | -4.74499 | 5998 ft | 157 kts | 295° |
| 2026-04-25 09:08 | 55.95564 | -4.76265 | 5996 ft | 157 kts | 295° |
| 2026-04-25 09:08 | 55.95881 | -4.78110 | 5989 ft | 157 kts | 272° |
| 2026-04-25 09:08 | 55.95541 | -4.79948 | 5982 ft | 161 kts | 236° |
| 2026-04-25 09:09 | 55.94652 | -4.81127 | 5976 ft | 160 kts | 208° |
| 2026-04-25 09:09 | 55.93661 | -4.81973 | 5975 ft | 157 kts | 210° |
| 2026-04-25 09:09 | 55.92710 | -4.82891 | 5977 ft | 155 kts | 211° |
| 2026-04-25 09:09 | 55.91768 | -4.83827 | 5977 ft | 155 kts | 211° |
| 2026-04-25 09:10 | 55.90826 | -4.84773 | 5975 ft | 155 kts | 211° |
| 2026-04-25 09:10 | 55.89890 | -4.85714 | 5977 ft | 154 kts | 211° |
| 2026-04-25 09:10 | 55.88957 | -4.86653 | 5975 ft | 154 kts | 211° |
| 2026-04-25 09:10 | 55.88020 | -4.87594 | 5975 ft | 154 kts | 212° |
| 2026-04-25 09:11 | 55.86145 | -4.89477 | 5977 ft | 155 kts | 212° |
| 2026-04-25 09:11 | 55.85212 | -4.90414 | 5976 ft | 154 kts | 211° |
| 2026-04-25 09:11 | 55.84279 | -4.91351 | 5975 ft | 154 kts | 211° |
| 2026-04-25 09:12 | 55.83348 | -4.92283 | 5975 ft | 154 kts | 212° |
| 2026-04-25 09:12 | 55.82433 | -4.93199 | 5974 ft | 154 kts | 211° |
| 2026-04-25 09:12 | 55.81504 | -4.94130 | 5973 ft | 153 kts | 211° |
| 2026-04-25 09:12 | 55.80574 | -4.95062 | 5973 ft | 153 kts | 211° |
| 2026-04-25 09:13 | 55.79644 | -4.95991 | 5972 ft | 153 kts | 212° |
| 2026-04-25 09:13 | 55.78715 | -4.96919 | 5972 ft | 153 kts | 211° |
| 2026-04-25 09:13 | 55.77787 | -4.97844 | 5972 ft | 153 kts | 211° |
| 2026-04-25 09:13 | 55.76857 | -4.98776 | 5974 ft | 153 kts | 211° |
| 2026-04-25 09:14 | 55.75928 | -4.99701 | 5972 ft | 153 kts | 211° |
| 2026-04-25 09:14 | 55.74998 | -5.00631 | 5972 ft | 153 kts | 211° |
| 2026-04-25 09:14 | 55.74068 | -5.01559 | 5972 ft | 153 kts | 211° |
| 2026-04-25 09:14 | 55.73138 | -5.02483 | 5972 ft | 153 kts | 211° |
| 2026-04-25 09:15 | 55.72208 | -5.03411 | 5972 ft | 153 kts | 211° |
| 2026-04-25 09:15 | 55.71265 | -5.04350 | 5974 ft | 153 kts | 211° |
| 2026-04-25 09:15 | 55.70348 | -5.05262 | 5970 ft | 153 kts | 211° |
| 2026-04-25 09:15 | 55.69405 | -5.06212 | 5969 ft | 154 kts | 212° |
| 2026-04-25 09:16 | 55.68481 | -5.07128 | 5968 ft | 155 kts | 211° |
| 2026-04-25 09:16 | 55.67528 | -5.08071 | 5969 ft | 155 kts | 211° |
| 2026-04-25 09:16 | 55.66599 | -5.08990 | 5969 ft | 155 kts | 211° |
| 2026-04-25 09:16 | 55.65661 | -5.09923 | 5970 ft | 155 kts | 211° |
| 2026-04-25 09:17 | 55.63781 | -5.11780 | 5972 ft | 155 kts | 211° |
| 2026-04-25 09:17 | 55.62840 | -5.12717 | 5971 ft | 155 kts | 212° |
| 2026-04-25 09:17 | 55.61902 | -5.13650 | 5972 ft | 155 kts | 211° |
| 2026-04-25 09:18 | 55.60966 | -5.14592 | 5971 ft | 154 kts | 212° |
| 2026-04-25 09:18 | 55.60032 | -5.15520 | 5971 ft | 155 kts | 211° |
| 2026-04-25 09:18 | 55.59109 | -5.16420 | 5968 ft | 155 kts | 211° |
| 2026-04-25 09:18 | 55.58230 | -5.17277 | 5968 ft | 155 kts | 211° |
| 2026-04-25 09:19 | 55.57281 | -5.18186 | 5970 ft | 155 kts | 211° |
| 2026-04-25 09:19 | 55.56342 | -5.19122 | 5971 ft | 155 kts | 211° |
| 2026-04-25 09:19 | 55.55403 | -5.20056 | 5975 ft | 155 kts | 212° |
| 2026-04-25 09:19 | 55.54463 | -5.20987 | 5973 ft | 155 kts | 211° |
| 2026-04-25 09:20 | 55.53521 | -5.21916 | 5973 ft | 155 kts | 211° |
| 2026-04-25 09:20 | 55.52581 | -5.22842 | 5977 ft | 155 kts | 211° |
| 2026-04-25 09:20 | 55.51640 | -5.23768 | 5973 ft | 155 kts | 211° |
| 2026-04-25 09:20 | 55.50702 | -5.24691 | 5974 ft | 154 kts | 211° |
| 2026-04-25 09:21 | 55.49762 | -5.25613 | 5974 ft | 155 kts | 211° |
| 2026-04-25 09:21 | 55.48823 | -5.26537 | 5973 ft | 154 kts | 211° |
| 2026-04-25 09:21 | 55.47883 | -5.27460 | 5974 ft | 155 kts | 211° |
| 2026-04-25 09:21 | 55.46944 | -5.28380 | 5973 ft | 154 kts | 211° |
| 2026-04-25 09:22 | 55.46019 | -5.29322 | 5973 ft | 152 kts | 218° |
| 2026-04-25 09:22 | 55.45435 | -5.30812 | 5950 ft | 152 kts | 256° |
| 2026-04-25 09:22 | 55.45352 | -5.32641 | 5751 ft | 148 kts | 269° |
| 2026-04-25 09:22 | 55.45291 | -5.34449 | 5551 ft | 148 kts | 267° |
| 2026-04-25 09:23 | 55.45219 | -5.36250 | 5351 ft | 147 kts | 266° |
| 2026-04-25 09:23 | 55.45143 | -5.38044 | 5151 ft | 147 kts | 266° |
| 2026-04-25 09:23 | 55.45115 | -5.39826 | 4949 ft | 144 kts | 282° |
| 2026-04-25 09:23 | 55.45606 | -5.41325 | 4742 ft | 141 kts | 294° |
| 2026-04-25 09:24 | 55.45771 | -5.43026 | 4536 ft | 142 kts | 277° |
| 2026-04-25 09:24 | 55.45914 | -5.44768 | 4336 ft | 144 kts | 278° |
| 2026-04-25 09:24 | 55.46059 | -5.46526 | 4142 ft | 146 kts | 279° |
| 2026-04-25 09:24 | 55.46205 | -5.48297 | 3939 ft | 146 kts | 278° |
| 2026-04-25 09:25 | 55.46353 | -5.50065 | 3740 ft | 146 kts | 278° |
| 2026-04-25 09:25 | 55.46526 | -5.51825 | 3542 ft | 146 kts | 283° |
| 2026-04-25 09:25 | 55.46761 | -5.53571 | 3343 ft | 147 kts | 283° |
| 2026-04-25 09:25 | 55.46994 | -5.55323 | 3145 ft | 147 kts | 284° |
| 2026-04-25 09:26 | 55.47231 | -5.57079 | 2940 ft | 147 kts | 284° |
| 2026-04-25 09:26 | 55.47471 | -5.58820 | 2748 ft | 148 kts | 283° |
| 2026-04-25 09:26 | 55.47714 | -5.60595 | 2547 ft | 148 kts | 283° |
| 2026-04-25 09:26 | 55.47961 | -5.62365 | 2348 ft | 149 kts | 283° |
| 2026-04-25 09:27 | 55.48211 | -5.64102 | 2155 ft | 150 kts | 283° |
| 2026-04-25 09:27 | 55.48473 | -5.65880 | 2078 ft | 144 kts | 283° |
| 2026-04-25 09:27 | 55.48731 | -5.67537 | 2070 ft | 137 kts | 283° |
| 2026-04-25 09:27 | 55.48980 | -5.69122 | 2067 ft | 131 kts | 283° |
| 2026-04-25 09:28 | 55.49215 | -5.70672 | 2068 ft | 132 kts | 283° |
| 2026-04-25 09:28 | 55.49457 | -5.72274 | 2068 ft | 137 kts | 284° |
| 2026-04-25 09:28 | 55.49653 | -5.73915 | 2068 ft | 136 kts | 272° |
| 2026-04-25 09:28 | 55.49648 | -5.75589 | 2065 ft | 137 kts | 269° |
| 2026-04-25 09:29 | 55.49652 | -5.77270 | 2064 ft | 138 kts | 268° |
| 2026-04-25 09:29 | 55.49650 | -5.78960 | 2064 ft | 138 kts | 268° |
| 2026-04-25 09:29 | 55.49649 | -5.80662 | 2065 ft | 139 kts | 268° |
| 2026-04-25 09:29 | 55.49647 | -5.82366 | 2065 ft | 139 kts | 268° |
| 2026-04-25 09:30 | 55.49645 | -5.84077 | 2066 ft | 139 kts | 268° |
| 2026-04-25 09:30 | 55.49643 | -5.85785 | 2066 ft | 140 kts | 269° |
| 2026-04-25 09:30 | 55.49639 | -5.87496 | 2067 ft | 140 kts | 268° |
| 2026-04-25 09:30 | 55.49637 | -5.89212 | 2067 ft | 139 kts | 268° |
| 2026-04-25 09:31 | 55.49634 | -5.90921 | 2065 ft | 139 kts | 269° |
| 2026-04-25 09:31 | 55.49632 | -5.92643 | 2036 ft | 141 kts | 268° |
| 2026-04-25 09:31 | 55.49558 | -5.94336 | 2025 ft | 136 kts | 246° |
| 2026-04-25 09:31 | 55.48839 | -5.95290 | 1912 ft | 138 kts | 186° |
| 2026-04-25 09:32 | 55.47869 | -5.95253 | 1741 ft | 142 kts | 178° |
| 2026-04-25 09:32 | 55.46866 | -5.95217 | 1576 ft | 146 kts | 178° |
| 2026-04-25 09:32 | 55.45844 | -5.95169 | 1409 ft | 148 kts | 177° |
| 2026-04-25 09:32 | 55.44846 | -5.95346 | 1240 ft | 147 kts | 204° |
| 2026-04-25 09:33 | 55.44273 | -5.96836 | 1067 ft | 158 kts | 260° |
| 2026-04-25 09:33 | 55.44477 | -5.98688 | 1037 ft | 150 kts | 284° |
| 2026-04-25 09:33 | 55.44742 | -6.00428 | 1033 ft | 145 kts | 283° |
| 2026-04-25 09:33 | 55.45010 | -6.02114 | 1030 ft | 144 kts | 286° |
| 2026-04-25 09:34 | 55.45465 | -6.03667 | 1026 ft | 143 kts | 299° |
| 2026-04-25 09:34 | 55.45963 | -6.05182 | 1024 ft | 141 kts | 299° |
| 2026-04-25 09:34 | 55.46609 | -6.06476 | 1020 ft | 142 kts | 314° |
| 2026-04-25 09:34 | 55.47312 | -6.07742 | 931 ft | 148 kts | 313° |
| 2026-04-25 09:35 | 55.48157 | -6.08654 | 913 ft | 143 kts | 355° |
| 2026-04-25 09:35 | 55.49085 | -6.08419 | 910 ft | 130 kts | 24° |
| 2026-04-25 09:35 | 55.49551 | -6.07265 | 901 ft | 116 kts | 94° |
| 2026-04-25 09:35 | 55.49410 | -6.05901 | 900 ft | 112 kts | 103° |
| 2026-04-25 09:36 | 55.49283 | -6.04525 | 818 ft | 118 kts | 105° |
| 2026-04-25 09:36 | 55.49070 | -6.03209 | 796 ft | 102 kts | 113° |
| 2026-04-25 09:36 | 55.48783 | -6.02126 | 624 ft | 96 kts | 125° |
| 2026-04-25 09:36 | 55.48385 | -6.01159 | 350 ft | 98 kts | 128° |
| 2026-04-25 09:37 | 55.48102 | -6.00116 | 192 ft | 95 kts | 117° |
| 2026-04-25 09:37 | 55.47912 | -5.99131 | 192 ft | 81 kts | 112° |
| 2026-04-25 09:37 | 55.47751 | -5.98212 | 221 ft | 74 kts | 107° |
| 2026-04-25 09:37 | 55.47638 | -5.97335 | 271 ft | 73 kts | 107° |
| 2026-04-25 09:38 | 55.47534 | -5.96418 | 314 ft | 79 kts | 108° |
| 2026-04-25 09:38 | 55.47459 | -5.95514 | 478 ft | 74 kts | 96° |
| 2026-04-25 09:38 | 55.47411 | -5.94590 | 554 ft | 77 kts | 106° |
| 2026-04-25 09:38 | 55.47328 | -5.93637 | 646 ft | 80 kts | 103° |
| 2026-04-25 09:39 | 55.47244 | -5.92665 | 743 ft | 81 kts | 103° |
| 2026-04-25 09:39 | 55.47163 | -5.91681 | 840 ft | 81 kts | 103° |
| 2026-04-25 09:39 | 55.47082 | -5.90689 | 925 ft | 84 kts | 103° |
| 2026-04-25 09:40 | 55.46892 | -5.88489 | 939 ft | 94 kts | 103° |
| 2026-04-25 09:40 | 55.46791 | -5.87343 | 937 ft | 95 kts | 103° |
| 2026-04-25 09:40 | 55.46688 | -5.86189 | 945 ft | 98 kts | 103° |
| 2026-04-25 09:40 | 55.46580 | -5.85010 | 948 ft | 97 kts | 103° |
| 2026-04-25 09:41 | 55.46473 | -5.83835 | 947 ft | 98 kts | 103° |
| 2026-04-25 09:41 | 55.46365 | -5.82653 | 948 ft | 97 kts | 103° |
| 2026-04-25 09:41 | 55.46261 | -5.81474 | 949 ft | 97 kts | 103° |
| 2026-04-25 09:41 | 55.45998 | -5.80438 | 948 ft | 94 kts | 133° |
| 2026-04-25 09:42 | 55.45610 | -5.79513 | 949 ft | 95 kts | 127° |
| 2026-04-25 09:42 | 55.45228 | -5.78565 | 944 ft | 95 kts | 122° |
| 2026-04-25 09:42 | 55.45119 | -5.77418 | 940 ft | 96 kts | 101° |
| 2026-04-25 09:42 | 55.45022 | -5.76258 | 942 ft | 96 kts | 102° |
| 2026-04-25 09:43 | 55.44929 | -5.75073 | 937 ft | 99 kts | 102° |
| 2026-04-25 09:43 | 55.44833 | -5.73911 | 917 ft | 93 kts | 103° |
| 2026-04-25 09:43 | 55.44730 | -5.72787 | 818 ft | 93 kts | 106° |
| 2026-04-25 09:43 | 55.44519 | -5.71655 | 524 ft | 103 kts | 114° |
| 2026-04-25 09:44 | 55.44262 | -5.70554 | 328 ft | 98 kts | 123° |
| 2026-04-25 09:44 | 55.43930 | -5.69648 | 55 ft | 75 kts | 117° |
| 2026-04-25 09:44 | 55.43792 | -5.68984 | 35 ft | 34 kts | 107° |
| 2026-04-25 09:44 | 55.43727 | -5.68632 | 33 ft | 19 kts | 97° |
| 2026-04-25 09:45 | 55.43693 | -5.68434 | 35 ft | 15 kts | 114° |
| 2026-04-25 09:45 | 55.43698 | -5.68371 | 36 ft | 4 kts | 321° |
| 2026-04-25 09:45 | 55.43715 | -5.68475 | 35 ft | 15 kts | 283° |
| 2026-04-25 09:45 | 55.43734 | -5.68612 | 33 ft | 19 kts | 283° |
| 2026-04-25 09:46 | 55.43759 | -5.68844 | 36 ft | 16 kts | 283° |
| 2026-04-25 09:46 | 55.43748 | -5.68735 | 34 ft | 29 kts | 122° |
| 2026-04-25 09:46 | 55.43686 | -5.68399 | 36 ft | 27 kts | 104° |
| 2026-04-25 09:46 | 55.43642 | -5.68108 | 41 ft | 22 kts | 107° |
| 2026-04-25 09:47 | 55.43602 | -5.67858 | 40 ft | 21 kts | 108° |
| 2026-04-25 09:47 | 55.43589 | -5.67632 | 42 ft | 17 kts | 46° |
| 2026-04-25 09:47 | 55.43692 | -5.67566 | 44 ft | 16 kts | 44° |
| 2026-04-25 09:47 | 55.43683 | -5.67380 | 42 ft | 17 kts | 107° |
| 2026-04-25 09:48 | 55.43655 | -5.67182 | 43 ft | 16 kts | 109° |
| 2026-04-25 09:48 | 55.43618 | -5.66997 | 42 ft | 16 kts | 102° |
| 2026-04-25 09:48 | 55.43594 | -5.66804 | 43 ft | 16 kts | 106° |
| 2026-04-25 09:48 | 55.43566 | -5.66623 | 44 ft | 15 kts | 109° |
| 2026-04-25 09:49 | 55.43534 | -5.66450 | 46 ft | 14 kts | 109° |
| 2026-04-25 09:49 | 55.43510 | -5.66314 | 52 ft | 9 kts | 95° |
| 2026-04-25 09:49 | 55.43514 | -5.66269 | 55 ft | 0 kts | 59° |
| 2026-04-25 09:50 | 55.43524 | -5.66252 | 57 ft | 8 kts | 30° |
| 2026-04-25 09:50 | 55.43588 | -5.66294 | 55 ft | 13 kts | 306° |
| 2026-04-25 09:50 | 55.43641 | -5.66348 | 53 ft | 1 kts | 8° |
| 2026-04-25 09:50 | 55.43642 | -5.66347 | 53 ft | 0 kts | 9° |
| 2026-04-25 09:51 | 55.43643 | -5.66347 | 53 ft | 0 kts | 16° |
| 2026-04-25 09:51 | 55.43647 | -5.66337 | 53 ft | 1 kts | 82° |
| 2026-04-25 09:51 | 55.43644 | -5.66324 | 54 ft | 1 kts | 113° |
| 2026-04-25 09:51 | 55.43643 | -5.66317 | 54 ft | 0 kts | 110° |
| 2026-04-25 09:52 | 55.43642 | -5.66313 | 55 ft | 1 kts | 107° |
| 2026-04-25 09:52 | 55.43640 | -5.66300 | 55 ft | 2 kts | 108° |
| 2026-04-25 09:52 | 55.43637 | -5.66269 | 56 ft | 3 kts | 73° |
| 2026-04-25 09:52 | 55.43651 | -5.66259 | 57 ft | 1 kts | 12° |
| 2026-04-25 09:53 | 55.43662 | -5.66255 | 58 ft | 1 kts | 16° |